• Join FlightAware (Why Join?)
  • Login
  • US Flag 
05:26PM EST


 

Airport Tracker/Info


-or-


 

Live Flight TrackerFlight Track Log ✈ WIG7117 ✈ 17-Jul-2013 ✈ KALB - KSYR

Flight Track Log - Related Links

Times and Time Zones

All times are in EDT time to prevent confusion due to time zone crossing. See the WIG7117 flight status page for this flight to view local times or setup timezone preferences in your user account.

Time Position Orientation Groundspeed Altitude Reporting Facility
EDT Latitude Longitude Course Direction KTS MPH feet Rate Location/Type
10:08PM 42.7403 -73.8111 282° West 70 81 800  Level Boston Center
10:09PM 42.7461 -73.8481 282° West 104 120 1,800 960 Climbing Boston Center
10:10PM 42.7517 -73.8850 282° West 109 125 2,900 960 Climbing Boston Center
10:11PM 42.7594 -73.9275 284° West 108 124 3,800 840 Climbing Boston Center
10:12PM 42.7675 -73.9644 287° West 109 125 4,700 840 Climbing Boston Center
10:13PM 42.7731 -74.0069 280° West 109 125 5,600 840 Climbing Boston Center
10:14PM 42.7808 -74.0469 285° West 110 127 6,500 840 Climbing Boston Center
10:15PM 42.7864 -74.0894 280° West 110 127 7,400 720 Climbing Boston Center
10:16PM 42.7942 -74.1322 284° West 113 130 8,000 240 Climbing Boston Center
10:17PM 42.8039 -74.1778 286° West 130 150 8,000  Level Boston Center
10:18PM 42.8114 -74.2289 281° West 132 152 8,000  Level Boston Center
10:19PM 42.8169 -74.2742 280° West 125 144 8,000  Level Boston Center
10:20PM 42.8267 -74.3228 285° West 132 152 8,000  Level Boston Center
10:21PM 42.8381 -74.3911 283° West 131 151 8,000  Level Boston Center
10:22PM 42.8475 -74.4394 285° West 131 151 8,000  Level Boston Center
10:23PM 42.8550 -74.4878 282° West 131 151 8,000  Level Boston Center
10:24PM 42.8606 -74.5361 279° West 131 151 8,000  Level Boston Center
10:25PM 42.8700 -74.5847 285° West 129 148 8,000  Level Boston Center
10:26PM 42.8775 -74.6331 282° West 126 145 8,000  Level Boston Center
10:27PM 42.8869 -74.6817 285° West 132 152 8,000  Level Boston Center
10:28PM 42.8942 -74.7300 282° West 131 151 8,000  Level Boston Center
10:29PM 42.9036 -74.7786 285° West 130 150 8,000  Level Boston Center
10:30PM 42.9131 -74.8272 285° West 133 153 8,000  Level Boston Center
10:31PM 42.9203 -74.8756 282° West 133 153 8,000  Level Boston Center
10:32PM 42.9278 -74.9214 283° West 128 147 8,000  Level Boston Center
10:33PM 42.9369 -74.9728 284° West 127 146 8,000  Level Boston Center
10:34PM 42.9422 -75.0211 279° West 129 148 8,000  Level Boston Center
10:35PM 42.9517 -75.0669 286° West 131 151 8,000  Level Boston Center
10:36PM 42.9586 -75.1183 280° West 131 151 8,000  Level Boston Center
10:37PM 42.9658 -75.1697 281° West 131 151 8,000  Level Boston Center
10:38PM 42.9772 -75.2186 288° West 129 148 8,000  Level Boston Center
10:39PM 42.9822 -75.2697 278° West 126 145 8,000  Level Boston Center
10:40PM 42.9892 -75.3183 281° West 129 148 8,000  Level Boston Center
10:41PM 42.9964 -75.3642 282° West 129 148 8,000  Level Boston Center
10:42PM 43.0036 -75.4072 283° West 128 147 8,000 -780 Level Boston Center
10:43PM 43.0147 -75.4644 285° West 160 184 6,600 -1,140 Descending Boston Center
10:44PM 43.0214 -75.5244 279° West 162 186 5,800 -900 Descending Boston Center
10:45PM 43.0322 -75.5875 283° West 154 177 4,800 -900 Descending Boston Center
10:46PM 43.0389 -75.6475 279° West 154 177 4,000 -780 Descending Boston Center
10:47PM 43.0478 -75.6992 283° West 148 170 3,300 -540 Descending Boston Center
10:48PM 43.0694 -75.7458 302° West 137 158 3,000 -120 Descending Boston Center
10:49PM 43.0764 -75.7889 282° West 121 139 3,100  Climbing Boston Center
10:50PM 43.0856 -75.8319 286° West 122 140 3,000 -300 Descending Boston Center
10:51PM 43.0967 -75.8808 287° West 136 157 2,500 -300 Descending Boston Center
10:52PM 43.1078 -75.9300 287° West 136 157 2,400 -300 Descending Boston Center
10:53PM 43.1125 -75.9756 278° West 126 145 2,000 -420 Descending Boston Center
10:54PM 43.1114 -76.0156 268° West 89 102 1,600 -480 Descending Boston Center
10:55PM 43.1103 -76.0494 267° West 83 96 1,100 -540 Descending Boston Center
10:56PM 43.1092 -76.0836 267° West 93 107 600 -540 Descending Boston Center
10:58PM 43.1000 -76.1000 270° West  Level FlightAware Approximate
11:05PM 43.1112 -76.1063 270° West  Level Estimated
11:06PM 43.1112 -76.1063 270° West  Level Estimated
11:07PM 43.1112 -76.1063 270° West  Level Estimated
11:08PM 43.1112 -76.1063 270° West  Level Estimated
11:09PM 43.1112 -76.1063 270° West  Level Estimated
11:10PM 43.1112 -76.1063 270° West  Level Estimated